Архив погоды в Куминской

Метеограмма Куминская
Вторник, 14 Августа
Время местн. Темп Ветер Видим Явления Облачность нижн/средн/верх Атм. давл. Влжн Точка росы ВНГО R Сост. почвы Tg s
Напр Скр Прв ур.ст ур.м изм
23:00 +16.7° штиль 0 - 50 км гроза без осадков {ливневые осадки} облачно 749 756 +0.2 98% +16.4° 600 м - - - -
20:00 +19.8° штиль 0 - 10 км ливневый дождь облачно 749 756 -0.1 89% +17.9° 600 м 0 - - -
17:00 - +25.6° Ю 1 - - - - 749 756 -0.6 55% +16° - - - - -
14:00 +27° Ю-З 3 - 10 км - облачно 749 756 0 45% +14° - - - - -
11:00 - +26.1° Ю,Ю-З 1 - - - - 749 756 0 54% +16.2° - - - - -
08:00 +18.6° Ю,Ю-З 1 - 10 км - переменная облачность 749 756 +0.4 88% +16.6° 1 км 0 - - -
05:00 +14.7° Ю 1 - 10 км - облачно с прояснениями 749 756 0 97% +14.3° более 2.5 км - - - -
02:00 +16.6° Ю,Ю-З 1 - 50 км - ясно 749 756 +0.1 91% +15.2° более 2.5 км - - - -
Понедельник, 13 Августа
Время местн. Темп Ветер Видим Явления Облачность нижн/средн/верх Атм. давл. Влжн Точка росы ВНГО R Сост. почвы Tg s
Напр Скр Прв ур.ст ур.м изм
23:00 +17.2° Ю,Ю-З 1 - 50 км - ясно 749 756 +0.3 96% +16.5° более 2.5 км - - - -
20:00 +21.6° Ю 1 - 10 км - ясно 749 756 -0.2 86% +19.1° более 2.5 км 0 - - -
17:00 - +26.6° Ю-З 1 - - - - 749 756 -0.5 63% +19° - - - - -
14:00 +25.3° Ю-З 1 - 10 км - переменная облачность 750 756 -0.2 62% +17.5° 600 м - - - -
11:00 - +23.1° Ю-З 1 - - - - 750 757 +0.2 65% +16.2° - - - - -
08:00 +16.2° Ю,Ю-З 1 - 10 км - переменная облачность 750 757 +0.4 84% +13.5° более 2.5 км 0 - - -
05:00 +10.2° штиль 0 - 10 км - облачно с прояснениями 749 756 +0.1 98% +9.9° - - - - -
02:00 +11° Ю 1 - 50 км - ясно 749 756 -0.4 97% +10.5° более 2.5 км - - - -
Воскресенье, 12 Августа
Время местн. Темп Ветер Видим Явления Облачность нижн/средн/верх Атм. давл. Влжн Точка росы ВНГО R Сост. почвы Tg s
Напр Скр Прв ур.ст ур.м изм
23:00 +9.8° штиль 0 - 50 км - ясно 749 757 0 97% +9.4° более 2.5 км - - - -
20:00 +13.8° штиль 0 - 10 км - облачно 749 757 0 87% +11.6° 1 км 0 - - -
17:00 - +17.9° З 1 - - - - 749 757 +0.2 52% +7.8° - - - - -
14:00 +16° З,С-З 2 - 10 км - преимущественно облачно 749 756 +0.2 57% +7.6° 1 км - - - -
11:00 - +14.8° С-З 2 - - - - 749 756 +0.2 61% +7.3° - - - - -
08:00 +9.4° С-З 1 - 10 км - ясно 749 756 +0.9 84% +6.8° более 2.5 км 0 Влажная (без луж) +5° -
05:00 +4.8° штиль 0 - 10 км - ясно 748 755 +0.6 99% +4.6° более 2.5 км - - - -
02:00 +8.9° С-З 1 - 50 км - ясно 747 755 +0.2 93% +7.9° более 2.5 км - - - -
Суббота, 11 Августа
Время местн. Темп Ветер Видим Явления Облачность нижн/средн/верх Атм. давл. Влжн Точка росы ВНГО R Сост. почвы Tg s
Напр Скр Прв ур.ст ур.м изм
23:00 +7.4° штиль 0 - 50 км - облачно 747 755 +0.9 98% +7.1° 600 м - - - -
20:00 +10.5° штиль 0 - 10 км - переменная облачность 746 754 +1.3 86% +8.3° 1 км 0 - - -